sensor_id;sensor_type;location;lat;lon;timestamp;pressure;altitude;pressure_sealevel;temperature;humidity
64908;BME280;64365;-1.756;110.040;2022-12-05T00:01:15;101843.34;;;5.95;79.19
64908;BME280;64365;-1.756;110.040;2022-12-05T00:03:45;101845.81;;;5.92;79.22
64908;BME280;64365;-1.756;110.040;2022-12-05T00:06:12;101846.13;;;5.90;78.89
64908;BME280;64365;-1.756;110.040;2022-12-05T00:08:39;101850.16;;;5.87;78.82
64908;BME280;64365;-1.756;110.040;2022-12-05T00:11:10;101849.66;;;5.85;81.59
64908;BME280;64365;-1.756;110.040;2022-12-05T00:13:38;101844.25;;;5.90;80.95
64908;BME280;64365;-1.756;110.040;2022-12-05T00:16:06;101843.63;;;5.94;80.49
64908;BME280;64365;-1.756;110.040;2022-12-05T00:18:33;101847.50;;;5.87;79.89
64908;BME280;64365;-1.756;110.040;2022-12-05T00:21:01;101846.28;;;5.94;80.07
64908;BME280;64365;-1.756;110.040;2022-12-05T00:23:28;101847.84;;;5.95;79.39
64908;BME280;64365;-1.756;110.040;2022-12-05T00:25:55;101850.38;;;6.00;79.82
64908;BME280;64365;-1.756;110.040;2022-12-05T00:28:22;101849.94;;;6.06;79.58
64908;BME280;64365;-1.756;110.040;2022-12-05T00:30:48;101847.59;;;6.05;80.53
64908;BME280;64365;-1.756;110.040;2022-12-05T00:33:15;101847.28;;;6.06;80.78
64908;BME280;64365;-1.756;110.040;2022-12-05T00:35:41;101848.22;;;6.11;80.60
64908;BME280;64365;-1.756;110.040;2022-12-05T00:38:09;101847.94;;;6.12;81.76
64908;BME280;64365;-1.756;110.040;2022-12-05T00:40:36;101853.06;;;6.26;81.89
64908;BME280;64365;-1.756;110.040;2022-12-05T00:43:02;101851.22;;;6.27;81.66
64908;BME280;64365;-1.756;110.040;2022-12-05T00:45:29;101856.34;;;6.32;80.95
64908;BME280;64365;-1.756;110.040;2022-12-05T00:47:55;101858.22;;;6.31;79.82
64908;BME280;64365;-1.756;110.040;2022-12-05T00:50:22;101853.88;;;6.27;80.33
64908;BME280;64365;-1.756;110.040;2022-12-05T00:52:49;101865.34;;;6.22;80.74
64908;BME280;64365;-1.756;110.040;2022-12-05T00:55:17;101859.28;;;6.21;80.39
64908;BME280;64365;-1.756;110.040;2022-12-05T00:57:43;101855.09;;;6.20;81.64
64908;BME280;64365;-1.756;110.040;2022-12-05T01:00:10;101857.91;;;6.24;82.21
64908;BME280;64365;-1.756;110.040;2022-12-05T01:02:37;101854.47;;;6.23;81.26
64908;BME280;64365;-1.756;110.040;2022-12-05T01:05:04;101857.28;;;6.27;80.98
64908;BME280;64365;-1.756;110.040;2022-12-05T01:07:31;101857.59;;;6.26;81.61
64908;BME280;64365;-1.756;110.040;2022-12-05T01:09:57;101861.00;;;6.26;81.49
64908;BME280;64365;-1.756;110.040;2022-12-05T01:12:25;101856.78;;;6.25;81.40
64908;BME280;64365;-1.756;110.040;2022-12-05T01:14:53;101856.78;;;6.16;80.66
64908;BME280;64365;-1.756;110.040;2022-12-05T01:17:19;101853.66;;;6.14;81.80
64908;BME280;64365;-1.756;110.040;2022-12-05T01:19:46;101847.94;;;6.12;81.72
64908;BME280;64365;-1.756;110.040;2022-12-05T01:22:12;101849.81;;;6.12;82.93
64908;BME280;64365;-1.756;110.040;2022-12-05T01:24:39;101850.44;;;6.17;83.03
64908;BME280;64365;-1.756;110.040;2022-12-05T01:27:05;101862.56;;;6.18;81.92
64908;BME280;64365;-1.756;110.040;2022-12-05T01:29:33;101852.13;;;6.13;81.52
64908;BME280;64365;-1.756;110.040;2022-12-05T01:32:00;101857.09;;;6.15;81.75
64908;BME280;64365;-1.756;110.040;2022-12-05T01:34:26;101858.81;;;6.19;82.13
64908;BME280;64365;-1.756;110.040;2022-12-05T01:36:53;101859.13;;;6.18;81.82
64908;BME280;64365;-1.756;110.040;2022-12-05T01:39:20;101854.63;;;6.18;82.97
64908;BME280;64365;-1.756;110.040;2022-12-05T01:41:48;101861.13;;;6.21;82.35
64908;BME280;64365;-1.756;110.040;2022-12-05T01:47:21;101856.91;;;6.11;83.54
64908;BME280;64365;-1.756;110.040;2022-12-05T01:49:50;101866.84;;;6.14;82.83
64908;BME280;64365;-1.756;110.040;2022-12-05T01:52:19;101863.00;;;6.12;83.17
64908;BME280;64365;-1.756;110.040;2022-12-05T01:54:47;101863.59;;;6.09;83.12
64908;BME280;64365;-1.756;110.040;2022-12-05T01:57:15;101858.16;;;6.05;82.85
64908;BME280;64365;-1.756;110.040;2022-12-05T01:59:44;101860.63;;;6.01;83.34
64908;BME280;64365;-1.756;110.040;2022-12-05T02:02:13;101859.84;;;6.01;84.06
64908;BME280;64365;-1.756;110.040;2022-12-05T02:04:50;101855.03;;;6.03;85.38
64908;BME280;64365;-1.756;110.040;2022-12-05T02:07:18;101846.81;;;6.04;83.40
64908;BME280;64365;-1.756;110.040;2022-12-05T02:09:46;101855.53;;;6.05;83.66
64908;BME280;64365;-1.756;110.040;2022-12-05T02:12:14;101848.31;;;5.97;83.61
64908;BME280;64365;-1.756;110.040;2022-12-05T02:14:45;101861.69;;;6.00;84.45
64908;BME280;64365;-1.756;110.040;2022-12-05T02:17:22;101859.66;;;5.97;84.19
64908;BME280;64365;-1.756;110.040;2022-12-05T02:20:07;101858.41;;;5.95;84.45
64908;BME280;64365;-1.756;110.040;2022-12-05T02:26:12;101863.09;;;5.98;85.47
64908;BME280;64365;-1.756;110.040;2022-12-05T02:28:55;101850.16;;;5.96;86.34
64908;BME280;64365;-1.756;110.040;2022-12-05T02:31:32;101857.69;;;6.03;84.93
64908;BME280;64365;-1.756;110.040;2022-12-05T02:34:05;101851.94;;;6.01;84.79
64908;BME280;64365;-1.756;110.040;2022-12-05T02:36:39;101860.72;;;5.96;84.49
64908;BME280;64365;-1.756;110.040;2022-12-05T02:39:13;101857.31;;;5.96;85.53
64908;BME280;64365;-1.756;110.040;2022-12-05T02:41:47;101856.25;;;5.97;85.87
64908;BME280;64365;-1.756;110.040;2022-12-05T02:44:17;101843.81;;;5.97;85.22
64908;BME280;64365;-1.756;110.040;2022-12-05T02:46:49;101856.59;;;6.04;84.70
64908;BME280;64365;-1.756;110.040;2022-12-05T02:49:19;101857.53;;;6.08;84.69
64908;BME280;64365;-1.756;110.040;2022-12-05T02:51:50;101855.03;;;6.03;84.74
64908;BME280;64365;-1.756;110.040;2022-12-05T02:54:21;101855.53;;;6.05;85.97
64908;BME280;64365;-1.756;110.040;2022-12-05T02:56:50;101852.56;;;6.06;86.92
64908;BME280;64365;-1.756;110.040;2022-12-05T02:59:18;101856.78;;;6.16;86.57
64908;BME280;64365;-1.756;110.040;2022-12-05T03:01:45;101850.75;;;6.16;86.04
64908;BME280;64365;-1.756;110.040;2022-12-05T03:04:15;101855.22;;;6.15;85.51
64908;BME280;64365;-1.756;110.040;2022-12-05T03:06:45;101849.81;;;6.12;85.76
64908;BME280;64365;-1.756;110.040;2022-12-05T03:09:18;101863.75;;;6.12;85.88
64908;BME280;64365;-1.756;110.040;2022-12-05T03:11:50;101856.66;;;6.21;88.03
64908;BME280;64365;-1.756;110.040;2022-12-05T03:14:22;101860.69;;;6.28;86.79
64908;BME280;64365;-1.756;110.040;2022-12-05T03:16:51;101852.47;;;6.29;86.87
64908;BME280;64365;-1.756;110.040;2022-12-05T03:19:24;101852.63;;;6.33;87.84
64908;BME280;64365;-1.756;110.040;2022-12-05T03:21:54;101863.53;;;6.40;89.15
64908;BME280;64365;-1.756;110.040;2022-12-05T03:24:21;101856.84;;;6.43;88.33
64908;BME280;64365;-1.756;110.040;2022-12-05T03:26:55;101855.59;;;6.40;88.40
64908;BME280;64365;-1.756;110.040;2022-12-05T03:29:27;101861.06;;;6.52;88.75
64908;BME280;64365;-1.756;110.040;2022-12-05T03:32:04;101866.47;;;6.56;87.08
64908;BME280;64365;-1.756;110.040;2022-12-05T03:34:41;101869.78;;;6.62;88.06
64908;BME280;64365;-1.756;110.040;2022-12-05T03:37:13;101871.94;;;6.60;86.93
64908;BME280;64365;-1.756;110.040;2022-12-05T03:39:44;101871.94;;;6.60;87.13
64908;BME280;64365;-1.756;110.040;2022-12-05T03:42:15;101875.06;;;6.62;86.37
64908;BME280;64365;-1.756;110.040;2022-12-05T03:44:47;101873.63;;;6.64;87.79
64908;BME280;64365;-1.756;110.040;2022-12-05T03:47:19;101871.00;;;6.73;87.72
64908;BME280;64365;-1.756;110.040;2022-12-05T03:49:50;101876.00;;;6.83;88.01
64908;BME280;64365;-1.756;110.040;2022-12-05T03:52:22;101867.44;;;6.86;86.49
64908;BME280;64365;-1.756;110.040;2022-12-05T03:54:52;101869.94;;;6.91;85.30
64908;BME280;64365;-1.756;110.040;2022-12-05T03:57:23;101870.09;;;6.86;84.95
64908;BME280;64365;-1.756;110.040;2022-12-05T03:59:55;101870.72;;;6.83;84.65
64908;BME280;64365;-1.756;110.040;2022-12-05T04:02:25;101872.56;;;6.83;85.17
64908;BME280;64365;-1.756;110.040;2022-12-05T04:04:59;101878.34;;;6.85;84.78
64908;BME280;64365;-1.756;110.040;2022-12-05T04:07:30;101879.56;;;6.79;84.04
64908;BME280;64365;-1.756;110.040;2022-12-05T04:10:02;101880.81;;;6.72;84.15
64908;BME280;64365;-1.756;110.040;2022-12-05T04:12:31;101875.19;;;6.65;84.06
64908;BME280;64365;-1.756;110.040;2022-12-05T04:15:03;101885.00;;;6.65;83.87
64908;BME280;64365;-1.756;110.040;2022-12-05T04:17:38;101894.63;;;6.61;83.23
64908;BME280;64365;-1.756;110.040;2022-12-05T04:20:09;101888.41;;;6.56;84.54
64908;BME280;64365;-1.756;110.040;2022-12-05T04:22:56;101887.16;;;6.63;87.18
64908;BME280;64365;-1.756;110.040;2022-12-05T04:25:25;101881.41;;;6.69;85.92
64908;BME280;64365;-1.756;110.040;2022-12-05T04:28:06;101884.06;;;6.69;84.47
64908;BME280;64365;-1.756;110.040;2022-12-05T04:30:36;101883.75;;;6.71;86.06
64908;BME280;64365;-1.756;110.040;2022-12-05T04:33:09;101880.31;;;6.79;86.22
64908;BME280;64365;-1.756;110.040;2022-12-05T04:35:42;101878.16;;;6.81;85.53
64908;BME280;64365;-1.756;110.040;2022-12-05T04:38:14;101882.38;;;6.82;85.19
64908;BME280;64365;-1.756;110.040;2022-12-05T04:40:46;101874.13;;;6.84;85.78
64908;BME280;64365;-1.756;110.040;2022-12-05T04:43:15;101876.13;;;6.87;86.38
64908;BME280;64365;-1.756;110.040;2022-12-05T04:45:45;101883.00;;;6.88;85.52
64908;BME280;64365;-1.756;110.040;2022-12-05T04:48:16;101878.94;;;6.90;85.08
64908;BME280;64365;-1.756;110.040;2022-12-05T04:50:45;101884.88;;;6.87;84.41
64908;BME280;64365;-1.756;110.040;2022-12-05T04:53:14;101890.91;;;6.88;85.01
64908;BME280;64365;-1.756;110.040;2022-12-05T04:55:45;101883.91;;;6.92;85.21
64908;BME280;64365;-1.756;110.040;2022-12-05T04:58:16;101883.91;;;6.92;85.61
64908;BME280;64365;-1.756;110.040;2022-12-05T05:00:46;101879.13;;;6.94;84.44
64908;BME280;64365;-1.756;110.040;2022-12-05T05:03:18;101881.13;;;6.97;86.71
64908;BME280;64365;-1.756;110.040;2022-12-05T05:05:48;101873.66;;;6.99;86.04
64908;BME280;64365;-1.756;110.040;2022-12-05T05:08:17;101878.63;;;7.01;86.22
64908;BME280;64365;-1.756;110.040;2022-12-05T05:10:51;101880.19;;;7.02;86.40
64908;BME280;64365;-1.756;110.040;2022-12-05T05:13:20;101888.28;;;7.05;86.11
64908;BME280;64365;-1.756;110.040;2022-12-05T05:15:46;101886.41;;;7.06;85.45
64908;BME280;64365;-1.756;110.040;2022-12-05T05:18:13;101887.50;;;7.05;85.59
64908;BME280;64365;-1.756;110.040;2022-12-05T05:20:39;101890.16;;;7.05;84.74
64908;BME280;64365;-1.756;110.040;2022-12-05T05:23:07;101890.16;;;7.05;86.16
64908;BME280;64365;-1.756;110.040;2022-12-05T05:25:34;101885.47;;;7.11;86.40
64908;BME280;64365;-1.756;110.040;2022-12-05T05:28:00;101892.78;;;7.14;86.11
64908;BME280;64365;-1.756;110.040;2022-12-05T05:30:27;101892.47;;;7.15;85.63
64908;BME280;64365;-1.756;110.040;2022-12-05T05:32:54;101887.16;;;7.15;85.06
64908;BME280;64365;-1.756;110.040;2022-12-05T05:35:20;101886.72;;;7.13;85.37
64908;BME280;64365;-1.756;110.040;2022-12-05T05:37:47;101878.31;;;7.20;85.42
64908;BME280;64365;-1.756;110.040;2022-12-05T05:40:16;101889.97;;;7.19;84.92
64908;BME280;64365;-1.756;110.040;2022-12-05T05:42:43;101892.47;;;7.15;84.84
64908;BME280;64365;-1.756;110.040;2022-12-05T05:45:11;101888.56;;;7.13;85.05
64908;BME280;64365;-1.756;110.040;2022-12-05T05:47:38;101889.38;;;7.13;85.28
64908;BME280;64365;-1.756;110.040;2022-12-05T05:50:07;101893.56;;;7.23;86.24
64908;BME280;64365;-1.756;110.040;2022-12-05T05:52:34;101892.28;;;7.29;85.37
64908;BME280;64365;-1.756;110.040;2022-12-05T05:55:02;101891.06;;;7.27;85.52
64908;BME280;64365;-1.756;110.040;2022-12-05T05:57:30;101899.28;;;7.25;85.03
64908;BME280;64365;-1.756;110.040;2022-12-05T05:59:57;101900.09;;;7.25;85.11
64908;BME280;64365;-1.756;110.040;2022-12-05T06:02:23;101890.28;;;7.26;84.58
64908;BME280;64365;-1.756;110.040;2022-12-05T06:04:50;101893.84;;;7.30;85.34
64908;BME280;64365;-1.756;110.040;2022-12-05T06:07:17;101893.53;;;7.32;85.01
64908;BME280;64365;-1.756;110.040;2022-12-05T06:09:43;101889.47;;;7.34;85.68
64908;BME280;64365;-1.756;110.040;2022-12-05T06:12:10;101900.66;;;7.40;85.16
64908;BME280;64365;-1.756;110.040;2022-12-05T06:14:38;101897.56;;;7.38;84.57
64908;BME280;64365;-1.756;110.040;2022-12-05T06:17:04;101899.75;;;7.36;84.97
64908;BME280;64365;-1.756;110.040;2022-12-05T06:19:31;101898.97;;;7.35;84.99
64908;BME280;64365;-1.756;110.040;2022-12-05T06:21:57;101903.94;;;7.37;85.40
64908;BME280;64365;-1.756;110.040;2022-12-05T06:24:24;101900.22;;;7.38;86.29
64908;BME280;64365;-1.756;110.040;2022-12-05T06:26:50;101898.34;;;7.47;86.69
64908;BME280;64365;-1.756;110.040;2022-12-05T06:29:17;101902.84;;;7.47;85.31
64908;BME280;64365;-1.756;110.040;2022-12-05T06:31:45;101905.78;;;7.45;84.97
64908;BME280;64365;-1.756;110.040;2022-12-05T06:34:11;101898.94;;;7.44;85.06
64908;BME280;64365;-1.756;110.040;2022-12-05T06:36:37;101899.75;;;7.45;84.73
64908;BME280;64365;-1.756;110.040;2022-12-05T06:39:04;101898.66;;;7.46;83.88
64908;BME280;64365;-1.756;110.040;2022-12-05T06:41:31;101908.00;;;7.43;84.53
64908;BME280;64365;-1.756;110.040;2022-12-05T06:43:58;101908.75;;;7.44;85.33
64908;BME280;64365;-1.756;110.040;2022-12-05T06:46:25;101903.47;;;7.44;85.20
64908;BME280;64365;-1.756;110.040;2022-12-05T06:48:53;101911.41;;;7.44;86.76
64908;BME280;64365;-1.756;110.040;2022-12-05T06:51:20;101916.53;;;7.49;86.74
64908;BME280;64365;-1.756;110.040;2022-12-05T06:53:47;101907.19;;;7.51;85.43
64908;BME280;64365;-1.756;110.040;2022-12-05T06:56:15;101915.13;;;7.51;85.22
64908;BME280;64365;-1.756;110.040;2022-12-05T06:58:45;101913.84;;;7.57;85.87
64908;BME280;64365;-1.756;110.040;2022-12-05T07:01:12;101913.25;;;7.61;85.81
64908;BME280;64365;-1.756;110.040;2022-12-05T07:03:58;101918.22;;;7.62;85.42
64908;BME280;64365;-1.756;110.040;2022-12-05T07:06:25;101905.91;;;7.57;85.06
64908;BME280;64365;-1.756;110.040;2022-12-05T07:08:52;101915.91;;;7.61;85.31
64908;BME280;64365;-1.756;110.040;2022-12-05T07:11:19;101918.66;;;7.64;85.85
64908;BME280;64365;-1.756;110.040;2022-12-05T07:13:46;101921.00;;;7.66;85.25
64908;BME280;64365;-1.756;110.040;2022-12-05T07:16:12;101928.31;;;7.60;84.97
64908;BME280;64365;-1.756;110.040;2022-12-05T07:18:39;101929.72;;;7.57;85.43
64908;BME280;64365;-1.756;110.040;2022-12-05T07:21:09;101926.47;;;7.61;85.69
64908;BME280;64365;-1.756;110.040;2022-12-05T07:23:36;101923.19;;;7.64;84.82
64908;BME280;64365;-1.756;110.040;2022-12-05T07:26:04;101925.38;;;7.62;85.15
64908;BME280;64365;-1.756;110.040;2022-12-05T07:28:31;101941.56;;;7.69;85.71
64908;BME280;64365;-1.756;110.040;2022-12-05T07:30:58;101935.31;;;7.73;85.66
64908;BME280;64365;-1.756;110.040;2022-12-05T07:33:26;101934.06;;;7.71;84.50
64908;BME280;64365;-1.756;110.040;2022-12-05T07:35:52;101943.88;;;7.70;84.77
64908;BME280;64365;-1.756;110.040;2022-12-05T07:38:20;101941.56;;;7.69;84.76
64908;BME280;64365;-1.756;110.040;2022-12-05T07:40:47;101946.84;;;7.69;85.54
64908;BME280;64365;-1.756;110.040;2022-12-05T07:43:13;101937.34;;;7.68;85.16
64908;BME280;64365;-1.756;110.040;2022-12-05T07:45:40;101945.75;;;7.70;84.98
64908;BME280;64365;-1.756;110.040;2022-12-05T07:48:06;101946.84;;;7.69;84.29
64908;BME280;64365;-1.756;110.040;2022-12-05T07:50:33;101952.75;;;7.66;85.30
64908;BME280;64365;-1.756;110.040;2022-12-05T07:52:59;101960.41;;;7.67;85.15
64908;BME280;64365;-1.756;110.040;2022-12-05T07:55:27;101948.56;;;7.65;84.48
64908;BME280;64365;-1.756;110.040;2022-12-05T07:57:54;101950.56;;;7.68;84.90
64908;BME280;64365;-1.756;110.040;2022-12-05T08:00:20;101957.44;;;7.69;85.18
64908;BME280;64365;-1.756;110.040;2022-12-05T08:02:49;101958.69;;;7.71;85.82
64908;BME280;64365;-1.756;110.040;2022-12-05T08:05:16;101962.25;;;7.75;85.58
64908;BME280;64365;-1.756;110.040;2022-12-05T08:07:42;101956.63;;;7.77;84.95
64908;BME280;64365;-1.756;110.040;2022-12-05T08:10:09;101955.84;;;7.76;84.64
64908;BME280;64365;-1.756;110.040;2022-12-05T08:12:37;101956.63;;;7.77;84.73
64908;BME280;64365;-1.756;110.040;2022-12-05T08:15:05;101957.56;;;7.81;85.05
64908;BME280;64365;-1.756;110.040;2022-12-05T08:17:31;101956.91;;;7.84;85.48
64908;BME280;64365;-1.756;110.040;2022-12-05T08:19:58;101953.19;;;7.85;85.57
64908;BME280;64365;-1.756;110.040;2022-12-05T08:22:25;101960.31;;;7.93;84.77
64908;BME280;64365;-1.756;110.040;2022-12-05T08:24:51;101962.03;;;7.89;84.61
64908;BME280;64365;-1.756;110.040;2022-12-05T08:27:18;101965.47;;;7.90;84.81
64908;BME280;64365;-1.756;110.040;2022-12-05T08:29:46;101971.06;;;7.88;84.66
64908;BME280;64365;-1.756;110.040;2022-12-05T08:32:12;101974.19;;;7.90;84.80
64908;BME280;64365;-1.756;110.040;2022-12-05T08:34:39;101968.44;;;7.88;84.84
64908;BME280;64365;-1.756;110.040;2022-12-05T08:37:05;101966.25;;;7.90;84.87
64908;BME280;64365;-1.756;110.040;2022-12-05T08:39:32;101978.84;;;7.93;84.92
64908;BME280;64365;-1.756;110.040;2022-12-05T08:42:00;101975.88;;;7.95;84.24
64908;BME280;64365;-1.756;110.040;2022-12-05T08:44:27;101973.09;;;7.91;84.41
64908;BME280;64365;-1.756;110.040;2022-12-05T08:46:55;101967.81;;;7.91;84.83
64908;BME280;64365;-1.756;110.040;2022-12-05T08:49:21;101971.06;;;7.97;84.59
64908;BME280;64365;-1.756;110.040;2022-12-05T08:51:48;101979.94;;;8.01;84.81
64908;BME280;64365;-1.756;110.040;2022-12-05T08:54:15;101982.25;;;8.03;83.88
64908;BME280;64365;-1.756;110.040;2022-12-05T08:56:41;101989.59;;;7.97;84.25
64908;BME280;64365;-1.756;110.040;2022-12-05T08:59:08;101983.97;;;7.99;84.11
64908;BME280;64365;-1.756;110.040;2022-12-05T09:01:35;101978.38;;;8.00;83.80
64908;BME280;64365;-1.756;110.040;2022-12-05T09:04:04;101991.00;;;7.95;83.45
64908;BME280;64365;-1.756;110.040;2022-12-05T09:06:31;101981.22;;;7.86;84.12
64908;BME280;64365;-1.756;110.040;2022-12-05T09:08:59;101993.97;;;7.93;83.74
64908;BME280;64365;-1.756;110.040;2022-12-05T09:11:31;101998.00;;;7.90;84.11
64908;BME280;64365;-1.756;110.040;2022-12-05T09:13:59;101990.53;;;7.92;84.37
64908;BME280;64365;-1.756;110.040;2022-12-05T09:16:28;101985.72;;;7.95;84.32
64908;BME280;64365;-1.756;110.040;2022-12-05T09:18:56;101997.84;;;7.96;84.12
64908;BME280;64365;-1.756;110.040;2022-12-05T09:21:25;101993.66;;;7.95;83.85
64908;BME280;64365;-1.756;110.040;2022-12-05T09:23:52;101994.09;;;7.97;84.28
64908;BME280;64365;-1.756;110.040;2022-12-05T09:26:21;102002.34;;;7.95;83.59
64908;BME280;64365;-1.756;110.040;2022-12-05T09:28:48;102008.44;;;7.96;84.25
64908;BME280;64365;-1.756;110.040;2022-12-05T09:31:17;102009.97;;;7.97;84.26
64908;BME280;64365;-1.756;110.040;2022-12-05T09:33:45;102009.53;;;7.95;84.41
64908;BME280;64365;-1.756;110.040;2022-12-05T09:36:14;102016.69;;;7.94;84.58
64908;BME280;64365;-1.756;110.040;2022-12-05T09:38:42;102015.75;;;7.99;84.68
64908;BME280;64365;-1.756;110.040;2022-12-05T09:41:17;102014.78;;;8.03;84.11
64908;BME280;64365;-1.756;110.040;2022-12-05T09:44:14;102006.25;;;8.06;84.40
64908;BME280;64365;-1.756;110.040;2022-12-05T09:46:49;102020.84;;;8.13;84.49
64908;BME280;64365;-1.756;110.040;2022-12-05T09:49:17;102016.03;;;8.15;83.71
64908;BME280;64365;-1.756;110.040;2022-12-05T09:51:45;102017.09;;;8.14;83.41
64908;BME280;64365;-1.756;110.040;2022-12-05T09:54:16;102021.94;;;8.12;82.95
64908;BME280;64365;-1.756;110.040;2022-12-05T09:56:44;102018.84;;;8.09;83.76
64908;BME280;64365;-1.756;110.040;2022-12-05T09:59:14;102018.03;;;8.09;84.05
64908;BME280;64365;-1.756;110.040;2022-12-05T10:01:46;102016.94;;;8.10;84.07
64908;BME280;64365;-1.756;110.040;2022-12-05T10:04:27;102021.31;;;8.15;84.79
64908;BME280;64365;-1.756;110.040;2022-12-05T10:07:01;102026.75;;;8.18;83.81
64908;BME280;64365;-1.756;110.040;2022-12-05T10:09:51;102020.69;;;8.18;83.83
64908;BME280;64365;-1.756;110.040;2022-12-05T10:12:40;102016.63;;;8.12;84.04
64908;BME280;64365;-1.756;110.040;2022-12-05T10:15:14;102022.09;;;8.15;83.31
64908;BME280;64365;-1.756;110.040;2022-12-05T10:17:47;102028.94;;;8.16;83.30
64908;BME280;64365;-1.756;110.040;2022-12-05T10:20:17;102019.13;;;8.17;82.84
64908;BME280;64365;-1.756;110.040;2022-12-05T10:22:47;102018.66;;;8.15;82.58
64908;BME280;64365;-1.756;110.040;2022-12-05T10:25:19;102022.88;;;8.07;82.41
64908;BME280;64365;-1.756;110.040;2022-12-05T10:27:50;102005.00;;;8.04;82.92
64908;BME280;64365;-1.756;110.040;2022-12-05T10:30:19;102024.44;;;8.08;83.79
64908;BME280;64365;-1.756;110.040;2022-12-05T10:32:50;102013.66;;;8.13;84.53
64908;BME280;64365;-1.756;110.040;2022-12-05T10:35:20;102013.06;;;8.16;84.84
64908;BME280;64365;-1.756;110.040;2022-12-05T10:37:49;102013.34;;;8.23;83.45
64908;BME280;64365;-1.756;110.040;2022-12-05T10:40:19;102008.03;;;8.23;83.26
64908;BME280;64365;-1.756;110.040;2022-12-05T10:42:47;102009.91;;;8.23;83.40
64908;BME280;64365;-1.756;110.040;2022-12-05T10:45:17;102005.22;;;8.29;83.20
64908;BME280;64365;-1.756;110.040;2022-12-05T10:47:45;102015.81;;;8.29;83.99
64908;BME280;64365;-1.756;110.040;2022-12-05T10:50:21;101998.63;;;8.35;84.57
64908;BME280;64365;-1.756;110.040;2022-12-05T10:52:51;102004.41;;;8.37;83.90
64908;BME280;64365;-1.756;110.040;2022-12-05T10:55:19;102006.28;;;8.36;83.49
64908;BME280;64365;-1.756;110.040;2022-12-05T10:57:50;102007.53;;;8.39;82.77
64908;BME280;64365;-1.756;110.040;2022-12-05T11:00:21;102000.78;;;8.41;83.41
64908;BME280;64365;-1.756;110.040;2022-12-05T11:02:49;102002.53;;;8.46;82.79
64908;BME280;64365;-1.756;110.040;2022-12-05T11:05:26;102000.50;;;8.43;84.44
64908;BME280;64365;-1.756;110.040;2022-12-05T11:07:54;102004.09;;;8.47;84.10
64908;BME280;64365;-1.756;110.040;2022-12-05T11:10:25;102006.09;;;8.50;83.25
64908;BME280;64365;-1.756;110.040;2022-12-05T11:12:54;102002.34;;;8.51;82.86
64908;BME280;64365;-1.756;110.040;2022-12-05T11:15:24;102006.88;;;8.51;82.64
64908;BME280;64365;-1.756;110.040;2022-12-05T11:17:52;102009.38;;;8.47;82.55
64908;BME280;64365;-1.756;110.040;2022-12-05T11:20:35;102001.13;;;8.49;83.65
64908;BME280;64365;-1.756;110.040;2022-12-05T11:23:16;101998.78;;;8.47;82.96
64908;BME280;64365;-1.756;110.040;2022-12-05T11:25:44;101995.34;;;8.47;83.39
64908;BME280;64365;-1.756;110.040;2022-12-05T11:28:35;101998.31;;;8.45;84.00
64908;BME280;64365;-1.756;110.040;2022-12-05T11:31:04;101988.63;;;8.49;83.80
64908;BME280;64365;-1.756;110.040;2022-12-05T11:33:33;101995.94;;;8.52;82.92
64908;BME280;64365;-1.756;110.040;2022-12-05T11:36:04;102007.00;;;8.54;83.32
64908;BME280;64365;-1.756;110.040;2022-12-05T11:38:32;101999.50;;;8.56;82.39
64908;BME280;64365;-1.756;110.040;2022-12-05T11:41:11;102004.69;;;8.53;82.50
64908;BME280;64365;-1.756;110.040;2022-12-05T11:43:59;102007.00;;;8.54;81.48
64908;BME280;64365;-1.756;110.040;2022-12-05T11:46:45;102002.22;;;8.48;83.06
64908;BME280;64365;-1.756;110.040;2022-12-05T11:49:38;102005.19;;;8.46;82.61
64908;BME280;64365;-1.756;110.040;2022-12-05T11:52:20;102008.13;;;8.45;83.67
64908;BME280;64365;-1.756;110.040;2022-12-05T11:55:01;102005.19;;;8.46;83.35
64908;BME280;64365;-1.756;110.040;2022-12-05T11:57:56;102002.03;;;8.44;83.62
64908;BME280;64365;-1.756;110.040;2022-12-05T12:00:31;101994.88;;;8.45;83.02
64908;BME280;64365;-1.756;110.040;2022-12-05T12:03:18;102000.31;;;8.48;83.51
64908;BME280;64365;-1.756;110.040;2022-12-05T12:05:54;101995.81;;;8.49;82.99
64908;BME280;64365;-1.756;110.040;2022-12-05T12:08:25;102006.88;;;8.51;83.33
64908;BME280;64365;-1.756;110.040;2022-12-05T12:11:00;102001.88;;;8.49;82.75
64908;BME280;64365;-1.756;110.040;2022-12-05T12:13:48;102000.19;;;8.45;83.58
64908;BME280;64365;-1.756;110.040;2022-12-05T12:16:30;102004.53;;;8.49;83.79
64908;BME280;64365;-1.756;110.040;2022-12-05T12:19:12;102002.03;;;8.53;85.13
64908;BME280;64365;-1.756;110.040;2022-12-05T12:22:03;101993.44;;;8.56;85.97
64908;BME280;64365;-1.756;110.040;2022-12-05T12:24:42;101992.94;;;8.63;84.32
64908;BME280;64365;-1.756;110.040;2022-12-05T12:27:14;101980.91;;;8.65;84.07
64908;BME280;64365;-1.756;110.040;2022-12-05T12:30:00;101985.56;;;8.68;84.84
64908;BME280;64365;-1.756;110.040;2022-12-05T12:32:32;101989.94;;;8.73;85.45
64908;BME280;64365;-1.756;110.040;2022-12-05T12:35:28;101989.94;;;8.73;84.11
64908;BME280;64365;-1.756;110.040;2022-12-05T12:38:18;101983.50;;;8.74;83.94
64908;BME280;64365;-1.756;110.040;2022-12-05T12:40:49;101978.13;;;8.62;83.32
64908;BME280;64365;-1.756;110.040;2022-12-05T12:43:37;101970.31;;;8.65;85.16
64908;BME280;64365;-1.756;110.040;2022-12-05T12:46:15;101977.00;;;8.71;84.73
64908;BME280;64365;-1.756;110.040;2022-12-05T12:48:57;101977.00;;;8.71;84.97
64908;BME280;64365;-1.756;110.040;2022-12-05T12:51:30;101977.31;;;8.70;84.96
64908;BME280;64365;-1.756;110.040;2022-12-05T12:54:15;101972.00;;;8.70;84.07
64908;BME280;64365;-1.756;110.040;2022-12-05T12:56:54;101967.53;;;8.62;84.21
64908;BME280;64365;-1.756;110.040;2022-12-05T12:59:38;101969.84;;;8.63;84.27
64908;BME280;64365;-1.756;110.040;2022-12-05T13:02:15;101972.81;;;8.62;84.62
64908;BME280;64365;-1.756;110.040;2022-12-05T13:04:48;101965.06;;;8.56;85.47